Aviation Digital Data Service (ADDS)

Output produced by METARs form (2124 UTC 24 May 2017)
found at http://aviationweather.gov/adds/metars/
 
KPHF 241727Z 2418/2518 09008KT P6SM OVC010 
     FM242000 11008KT P6SM OVC020 
     FM250000 09010KT P6SM VCSH OVC012 
     FM250300 11011KT 4SM +SHRA OVC007 
     FM250600 15012KT 3SM +SHRA OVC008 
     FM251300 19008KT P6SM BKN020 
     FM251500 21010KT P6SM BKN035